메인 페이지
METAR-TAF:

METAR-TAF

공항 :

Chanute, 캔자스, 미국

위도: 37-40-13N, 경도: 095-29-03W, 고도: 305m

현재 날씨관측

예보는 28분 전, 15:52시(UTC)에 발표되었습니다.
무풍
온도 7°C
습도 53%
기압 1025 hPa
시정: 16.1km
맑음

METAR: KCNU 161552Z AUTO 00000KT 10SM CLR 07/M02 A3028 RMK AO2 SLP257 T00671022 $

시각: 10:20 (16:20 UTC)

예보

예보는 4 시간 53분 전, 11:27시(UTC)에 발표되었습니다.
예보 대상 시간: 16일 12시부터 17일 12시까지 (UTC)
여러 방향의 바람 4kt
시정: 10km
고도 25000ft 상공 구름 보통
16일 1600시부터 (UTC)
5kt
시정: 10km
맑음
16일 2300시부터 (UTC)
5kt
시정: 10km
맑음

TAF: KCNU 161127Z 1612/1712 VRB04KT P6SM SCT250 FM161600 27005KT P6SM SKC FM162300 36005KT P6SM SKC

4,000개 이상의 공항 관측 자료 및 예보 (METAR 및 TAF 보고).

지도상에서 검색 가능한 기상관측소가 노란 점과 빨간 점으로 표시되어 있습니다.

기상관측소 명을 보려면 표시 위로 마우스를 이동하세요.

날씨 관측과 예보를 보려면 클릭하세요.

지도 변경 : 확대하려면 엑스 표시가 있는 녹색 버튼, 축소하려면 빼기 표시가 있는 녹색 버튼, 다음 페이지의 지도를 보려면 녹색 화살표를 클릭하세요.


METAR-TAF: